sensor_id;sensor_type;location;lat;lon;timestamp;temperature;humidity
18690;DHT22;9782;52.930;15.562;2022-08-01T00:00:32;19.80;1.00
18690;DHT22;9782;52.930;15.562;2022-08-01T00:02:59;19.80;1.00
18690;DHT22;9782;52.930;15.562;2022-08-01T00:05:26;19.80;1.00
18690;DHT22;9782;52.930;15.562;2022-08-01T00:07:55;19.80;1.00
18690;DHT22;9782;52.930;15.562;2022-08-01T00:10:22;19.70;1.00
18690;DHT22;9782;52.930;15.562;2022-08-01T00:12:49;19.70;1.00
18690;DHT22;9782;52.930;15.562;2022-08-01T00:15:17;19.70;1.00
18690;DHT22;9782;52.930;15.562;2022-08-01T00:17:44;19.70;1.00
18690;DHT22;9782;52.930;15.562;2022-08-01T00:20:13;19.60;1.00
18690;DHT22;9782;52.930;15.562;2022-08-01T00:22:41;19.60;1.00
18690;DHT22;9782;52.930;15.562;2022-08-01T00:25:09;19.60;1.00
18690;DHT22;9782;52.930;15.562;2022-08-01T00:27:36;19.60;1.00
18690;DHT22;9782;52.930;15.562;2022-08-01T00:30:04;19.60;1.00
18690;DHT22;9782;52.930;15.562;2022-08-01T00:32:32;19.60;1.00
18690;DHT22;9782;52.930;15.562;2022-08-01T00:34:59;19.60;1.00
18690;DHT22;9782;52.930;15.562;2022-08-01T00:37:26;19.60;1.00
18690;DHT22;9782;52.930;15.562;2022-08-01T00:39:53;19.60;1.00
18690;DHT22;9782;52.930;15.562;2022-08-01T00:42:21;19.60;1.00
18690;DHT22;9782;52.930;15.562;2022-08-01T00:44:49;19.60;1.00
18690;DHT22;9782;52.930;15.562;2022-08-01T00:47:32;19.70;1.00
18690;DHT22;9782;52.930;15.562;2022-08-01T01:03:02;19.70;1.00
18690;DHT22;9782;52.930;15.562;2022-08-01T01:05:48;19.60;1.00
18690;DHT22;9782;52.930;15.562;2022-08-01T01:08:46;19.60;1.00
18690;DHT22;9782;52.930;15.562;2022-08-01T01:14:27;19.60;1.00
18690;DHT22;9782;52.930;15.562;2022-08-01T01:17:06;19.60;1.00
18690;DHT22;9782;52.930;15.562;2022-08-01T01:20:02;19.60;1.00
18690;DHT22;9782;52.930;15.562;2022-08-01T01:23:08;19.60;1.00
18690;DHT22;9782;52.930;15.562;2022-08-01T01:26:13;19.60;1.00
18690;DHT22;9782;52.930;15.562;2022-08-01T01:29:23;19.60;1.00
18690;DHT22;9782;52.930;15.562;2022-08-01T01:32:12;19.60;1.00
18690;DHT22;9782;52.930;15.562;2022-08-01T01:35:17;19.60;1.00
18690;DHT22;9782;52.930;15.562;2022-08-01T01:38:25;19.50;1.00
18690;DHT22;9782;52.930;15.562;2022-08-01T01:41:17;19.50;1.00
18690;DHT22;9782;52.930;15.562;2022-08-01T01:47:35;19.40;1.00
18690;DHT22;9782;52.930;15.562;2022-08-01T01:50:23;19.50;1.00
18690;DHT22;9782;52.930;15.562;2022-08-01T01:53:14;19.40;1.00
18690;DHT22;9782;52.930;15.562;2022-08-01T01:56:18;19.40;1.00
18690;DHT22;9782;52.930;15.562;2022-08-01T01:59:19;19.40;1.00
18690;DHT22;9782;52.930;15.562;2022-08-01T02:02:11;19.30;1.00
18690;DHT22;9782;52.930;15.562;2022-08-01T02:05:14;19.30;1.00
18690;DHT22;9782;52.930;15.562;2022-08-01T02:07:55;19.30;1.00
18690;DHT22;9782;52.930;15.562;2022-08-01T02:10:35;19.30;1.00
18690;DHT22;9782;52.930;15.562;2022-08-01T02:13:38;19.30;1.00
18690;DHT22;9782;52.930;15.562;2022-08-01T02:19:41;19.20;2.20
18690;DHT22;9782;52.930;15.562;2022-08-01T02:22:34;19.20;2.30
18690;DHT22;9782;52.930;15.562;2022-08-01T02:28:31;19.20;3.70
18690;DHT22;9782;52.930;15.562;2022-08-01T02:31:18;19.20;16.20
18690;DHT22;9782;52.930;15.562;2022-08-01T02:34:23;19.20;15.50
18690;DHT22;9782;52.930;15.562;2022-08-01T02:37:14;19.10;17.90
18690;DHT22;9782;52.930;15.562;2022-08-01T02:40:05;19.10;20.10
18690;DHT22;9782;52.930;15.562;2022-08-01T02:43:02;19.10;20.30
18690;DHT22;9782;52.930;15.562;2022-08-01T02:45:45;19.10;35.40
18690;DHT22;9782;52.930;15.562;2022-08-01T02:48:52;19.10;53.40
18690;DHT22;9782;52.930;15.562;2022-08-01T02:51:37;19.00;44.00
18690;DHT22;9782;52.930;15.562;2022-08-01T02:57:37;18.90;48.90
18690;DHT22;9782;52.930;15.562;2022-08-01T03:10:20;18.90;53.20
18690;DHT22;9782;52.930;15.562;2022-08-01T03:13:07;18.90;71.90
18690;DHT22;9782;52.930;15.562;2022-08-01T03:15:53;18.90;72.40
18690;DHT22;9782;52.930;15.562;2022-08-01T03:18:37;18.90;63.60
18690;DHT22;9782;52.930;15.562;2022-08-01T03:21:26;18.90;62.90
18690;DHT22;9782;52.930;15.562;2022-08-01T03:24:13;18.90;63.90
18690;DHT22;9782;52.930;15.562;2022-08-01T03:26:50;19.00;53.40
18690;DHT22;9782;52.930;15.562;2022-08-01T03:29:29;19.00;54.10
18690;DHT22;9782;52.930;15.562;2022-08-01T03:35:17;19.10;51.50
18690;DHT22;9782;52.930;15.562;2022-08-01T03:38:09;19.10;61.80
18690;DHT22;9782;52.930;15.562;2022-08-01T03:41:05;19.10;78.30
18690;DHT22;9782;52.930;15.562;2022-08-01T03:43:46;19.00;51.40
18690;DHT22;9782;52.930;15.562;2022-08-01T03:46:26;19.10;53.50
18690;DHT22;9782;52.930;15.562;2022-08-01T03:48:59;19.10;51.10
18690;DHT22;9782;52.930;15.562;2022-08-01T03:51:27;19.10;53.90
18690;DHT22;9782;52.930;15.562;2022-08-01T03:53:59;19.10;50.90
18690;DHT22;9782;52.930;15.562;2022-08-01T03:56:26;19.10;59.20
18690;DHT22;9782;52.930;15.562;2022-08-01T03:58:56;19.10;55.00
18690;DHT22;9782;52.930;15.562;2022-08-01T04:01:26;19.10;55.00
18690;DHT22;9782;52.930;15.562;2022-08-01T04:03:53;19.10;58.00
18690;DHT22;9782;52.930;15.562;2022-08-01T04:06:21;19.10;58.40
18690;DHT22;9782;52.930;15.562;2022-08-01T04:08:48;19.00;61.30
18690;DHT22;9782;52.930;15.562;2022-08-01T04:11:23;19.00;61.00
18690;DHT22;9782;52.930;15.562;2022-08-01T04:13:51;19.00;69.90
18690;DHT22;9782;52.930;15.562;2022-08-01T04:16:19;19.00;67.00
18690;DHT22;9782;52.930;15.562;2022-08-01T04:18:47;19.10;79.40
18690;DHT22;9782;52.930;15.562;2022-08-01T04:21:32;19.20;86.00
18690;DHT22;9782;52.930;15.562;2022-08-01T04:27:35;19.70;97.30
18690;DHT22;9782;52.930;15.562;2022-08-01T04:33:18;20.80;93.50
18690;DHT22;9782;52.930;15.562;2022-08-01T04:45:05;20.90;68.40
18690;DHT22;9782;52.930;15.562;2022-08-01T04:47:34;20.90;59.40
18690;DHT22;9782;52.930;15.562;2022-08-01T04:50:04;20.80;63.90
18690;DHT22;9782;52.930;15.562;2022-08-01T04:52:36;20.80;70.30
18690;DHT22;9782;52.930;15.562;2022-08-01T04:55:05;20.70;60.10
18690;DHT22;9782;52.930;15.562;2022-08-01T04:57:34;20.70;60.10
18690;DHT22;9782;52.930;15.562;2022-08-01T05:00:03;20.70;61.80
18690;DHT22;9782;52.930;15.562;2022-08-01T05:02:32;20.70;60.80
18690;DHT22;9782;52.930;15.562;2022-08-01T05:04:59;20.60;58.60
18690;DHT22;9782;52.930;15.562;2022-08-01T05:07:26;20.60;61.80
18690;DHT22;9782;52.930;15.562;2022-08-01T05:09:55;20.60;58.50
18690;DHT22;9782;52.930;15.562;2022-08-01T05:12:22;20.60;57.90
18690;DHT22;9782;52.930;15.562;2022-08-01T05:14:49;20.60;73.50
18690;DHT22;9782;52.930;15.562;2022-08-01T05:17:19;20.60;65.10
18690;DHT22;9782;52.930;15.562;2022-08-01T05:20:10;20.60;66.20
18690;DHT22;9782;52.930;15.562;2022-08-01T05:23:02;20.60;66.50
18690;DHT22;9782;52.930;15.562;2022-08-01T05:25:31;20.70;64.10
18690;DHT22;9782;52.930;15.562;2022-08-01T05:27:58;20.70;62.10
18690;DHT22;9782;52.930;15.562;2022-08-01T05:30:26;20.80;61.20
18690;DHT22;9782;52.930;15.562;2022-08-01T05:32:53;20.80;67.30
18690;DHT22;9782;52.930;15.562;2022-08-01T05:35:31;20.80;71.40
18690;DHT22;9782;52.930;15.562;2022-08-01T05:38:02;20.90;69.60
18690;DHT22;9782;52.930;15.562;2022-08-01T05:40:31;21.00;67.20
18690;DHT22;9782;52.930;15.562;2022-08-01T05:43:03;21.20;67.40
18690;DHT22;9782;52.930;15.562;2022-08-01T05:45:39;21.40;69.80
18690;DHT22;9782;52.930;15.562;2022-08-01T05:48:16;21.70;67.30
18690;DHT22;9782;52.930;15.562;2022-08-01T05:51:09;21.90;64.80
18690;DHT22;9782;52.930;15.562;2022-08-01T05:54:06;22.30;60.00
18690;DHT22;9782;52.930;15.562;2022-08-01T05:57:13;22.50;61.40
18690;DHT22;9782;52.930;15.562;2022-08-01T05:59:45;22.70;55.80
18690;DHT22;9782;52.930;15.562;2022-08-01T06:02:12;22.80;51.70
18690;DHT22;9782;52.930;15.562;2022-08-01T06:04:39;22.90;51.00
18690;DHT22;9782;52.930;15.562;2022-08-01T06:07:24;23.10;48.40
18690;DHT22;9782;52.930;15.562;2022-08-01T06:10:06;23.50;48.00
18690;DHT22;9782;52.930;15.562;2022-08-01T06:12:34;23.90;49.40
18690;DHT22;9782;52.930;15.562;2022-08-01T06:15:01;24.30;44.30
18690;DHT22;9782;52.930;15.562;2022-08-01T06:17:28;24.80;44.80
18690;DHT22;9782;52.930;15.562;2022-08-01T06:19:55;25.50;43.70
18690;DHT22;9782;52.930;15.562;2022-08-01T06:22:23;25.90;34.70
18690;DHT22;9782;52.930;15.562;2022-08-01T06:24:50;26.10;30.60
18690;DHT22;9782;52.930;15.562;2022-08-01T06:27:17;26.20;26.60
18690;DHT22;9782;52.930;15.562;2022-08-01T06:29:45;26.30;26.00
18690;DHT22;9782;52.930;15.562;2022-08-01T06:32:12;26.70;24.10
18690;DHT22;9782;52.930;15.562;2022-08-01T06:34:39;27.60;21.70
18690;DHT22;9782;52.930;15.562;2022-08-01T06:37:06;28.80;29.80
18690;DHT22;9782;52.930;15.562;2022-08-01T06:39:33;29.60;19.10
18690;DHT22;9782;52.930;15.562;2022-08-01T06:42:00;30.20;8.50
18690;DHT22;9782;52.930;15.562;2022-08-01T06:44:27;30.90;1.60
18690;DHT22;9782;52.930;15.562;2022-08-01T06:46:55;31.20;1.00
18690;DHT22;9782;52.930;15.562;2022-08-01T06:49:23;30.90;1.00
18690;DHT22;9782;52.930;15.562;2022-08-01T06:51:50;30.60;1.00
18690;DHT22;9782;52.930;15.562;2022-08-01T06:54:27;30.20;1.00
18690;DHT22;9782;52.930;15.562;2022-08-01T06:56:59;29.80;1.00
18690;DHT22;9782;52.930;15.562;2022-08-01T06:59:45;29.40;1.00
18690;DHT22;9782;52.930;15.562;2022-08-01T07:04:55;28.80;1.00
18690;DHT22;9782;52.930;15.562;2022-08-01T07:07:36;28.60;1.00
18690;DHT22;9782;52.930;15.562;2022-08-01T07:10:12;28.50;1.00
18690;DHT22;9782;52.930;15.562;2022-08-01T07:12:39;28.50;1.00
18690;DHT22;9782;52.930;15.562;2022-08-01T07:15:07;28.30;1.00
18690;DHT22;9782;52.930;15.562;2022-08-01T07:17:36;28.10;1.00
18690;DHT22;9782;52.930;15.562;2022-08-01T07:20:05;27.90;1.00
18690;DHT22;9782;52.930;15.562;2022-08-01T07:22:32;27.80;1.00
18690;DHT22;9782;52.930;15.562;2022-08-01T07:25:05;27.70;1.00
18690;DHT22;9782;52.930;15.562;2022-08-01T07:29:04;27.70;1.00
18690;DHT22;9782;52.930;15.562;2022-08-01T07:31:09;27.60;1.00
18690;DHT22;9782;52.930;15.562;2022-08-01T07:33:49;27.70;1.00
18690;DHT22;9782;52.930;15.562;2022-08-01T07:42:22;28.00;1.00
18690;DHT22;9782;52.930;15.562;2022-08-01T07:45:07;29.00;1.00
18690;DHT22;9782;52.930;15.562;2022-08-01T07:48:24;29.60;1.00
18690;DHT22;9782;52.930;15.562;2022-08-01T07:51:28;29.80;1.00
18690;DHT22;9782;52.930;15.562;2022-08-01T07:54:08;29.70;1.00
18690;DHT22;9782;52.930;15.562;2022-08-01T07:57:02;29.60;1.00
18690;DHT22;9782;52.930;15.562;2022-08-01T07:59:39;29.40;1.00
18690;DHT22;9782;52.930;15.562;2022-08-01T08:05:53;28.80;1.00
18690;DHT22;9782;52.930;15.562;2022-08-01T08:08:39;28.60;1.00
18690;DHT22;9782;52.930;15.562;2022-08-01T08:11:29;28.40;1.00
18690;DHT22;9782;52.930;15.562;2022-08-01T08:14:27;28.30;1.00
18690;DHT22;9782;52.930;15.562;2022-08-01T08:17:08;28.50;1.00
18690;DHT22;9782;52.930;15.562;2022-08-01T08:19:56;28.60;1.00
18690;DHT22;9782;52.930;15.562;2022-08-01T08:22:29;28.70;1.00
18690;DHT22;9782;52.930;15.562;2022-08-01T08:25:07;28.90;1.00
18690;DHT22;9782;52.930;15.562;2022-08-01T08:27:48;29.20;1.00
18690;DHT22;9782;52.930;15.562;2022-08-01T08:30:15;29.30;1.00
18690;DHT22;9782;52.930;15.562;2022-08-01T08:32:44;29.50;1.00
18690;DHT22;9782;52.930;15.562;2022-08-01T08:35:11;29.70;1.00
18690;DHT22;9782;52.930;15.562;2022-08-01T09:04:14;32.40;1.00
18690;DHT22;9782;52.930;15.562;2022-08-01T09:06:54;32.30;1.00
18690;DHT22;9782;52.930;15.562;2022-08-01T09:09:47;32.10;1.00
18690;DHT22;9782;52.930;15.562;2022-08-01T09:15:57;32.00;1.00
18690;DHT22;9782;52.930;15.562;2022-08-01T09:22:39;32.20;1.00
